Time;durP1;ratioP1;P1;durP2;ratioP2;P2;SDS_P1;SDS_P2;PMS_P1;PMS_P2;Temp;Humidity;BMP_temperature;BMP_pressure;BME280_temperature;BME280_humidity;BME280_pressure;Samples;Min_cycle;Max_cycle;Signal;HPM_P1;HPM_P2
2021/12/23 00:00:18;;;;;;;30.77;11.20;;;;;;;-11.55;73.06;96732.80;1608977;89;21062;-62
2021/12/23 00:02:46;;;;;;;34.87;13.73;;;;;;;-11.65;73.58;96729.86;1608897;89;21079;-62
2021/12/23 00:05:12;;;;;;;17.17;5.17;;;;;;;-11.73;73.27;96724.91;1618026;89;21061;-62
2021/12/23 00:07:40;;;;;;;4.00;2.10;;;;;;;-11.69;74.08;96729.13;1609012;89;21517;-62
2021/12/23 00:10:09;;;;;;;1.97;1.50;;;;;;;-11.53;74.39;96717.66;1609101;89;21081;-62
2021/12/23 00:12:40;;;;;;;3.77;1.80;;;;;;;-11.48;73.98;96724.91;1609132;89;21063;-62
2021/12/23 00:15:22;;;;;;;1.63;1.27;;;;;;;-11.52;74.41;96716.88;1582382;91;21101;-63
2021/12/23 00:18:01;;;;;;;3.70;1.70;;;;;;;-11.50;74.11;96720.06;1607788;89;21050;-62
2021/12/23 00:23:25;;;;;;;9.20;4.33;;;;;;;-11.36;74.31;96712.30;1609015;89;21120;-62
2021/12/23 00:25:54;;;;;;;13.57;6.87;;;;;;;-11.44;74.74;96704.03;1608276;89;21055;-62
2021/12/23 00:28:22;;;;;;;4.37;1.80;;;;;;;-11.34;74.84;96701.83;1608608;89;21102;-63
2021/12/23 00:30:49;;;;;;;4.67;2.27;;;;;;;-11.27;74.40;96699.02;1608490;89;21046;-62
2021/12/23 00:33:15;;;;;;;13.77;6.10;;;;;;;-11.30;74.40;96702.99;1608697;89;21023;-62
2021/12/23 00:35:42;;;;;;;19.87;5.87;;;;;;;-11.39;75.03;96694.20;1608546;89;21034;-63
2021/12/23 00:38:23;;;;;;;7.50;2.90;;;;;;;-11.39;74.79;96702.76;1608697;89;21073;-62
2021/12/23 00:40:46;;;;;;;5.53;2.60;;;;;;;-11.36;74.95;96703.39;1608183;89;21070;-62
2021/12/23 00:43:13;;;;;;;7.07;2.20;;;;;;;-11.27;74.48;96699.41;1608781;89;21055;-62
2021/12/23 00:45:39;;;;;;;4.47;2.40;;;;;;;-11.29;73.92;96703.48;1608550;89;21039;-63
2021/12/23 00:48:06;;;;;;;3.97;2.23;;;;;;;-11.35;73.77;96698.40;1608419;89;21142;-62
2021/12/23 00:50:32;;;;;;;3.47;2.03;;;;;;;-11.33;73.71;96703.24;1608339;89;21094;-62
2021/12/23 00:53:01;;;;;;;5.13;2.70;;;;;;;-11.28;73.86;96702.74;1608424;89;21063;-62
2021/12/23 00:55:28;;;;;;;4.70;1.60;;;;;;;-11.26;73.74;96697.36;1608815;89;21505;-62
2021/12/23 00:57:54;;;;;;;3.10;1.73;;;;;;;-11.33;73.78;96691.78;1608645;89;21038;-62
2021/12/23 01:00:21;;;;;;;3.57;2.00;;;;;;;-11.38;74.46;96687.97;1608276;89;21099;-63
2021/12/23 01:02:49;;;;;;;5.50;2.13;;;;;;;-11.41;74.01;96686.84;1608663;89;21019;-62
2021/12/23 01:05:19;;;;;;;2.80;1.20;;;;;;;-11.35;74.14;96692.42;1608511;89;21095;-63
2021/12/23 01:07:47;;;;;;;4.37;1.40;;;;;;;-11.33;74.03;96685.41;1608633;89;21086;-63
2021/12/23 01:10:15;;;;;;;2.77;1.70;;;;;;;-11.28;74.04;96683.25;1608720;89;21059;-62
2021/12/23 01:12:47;;;;;;;3.30;1.97;;;;;;;-11.29;73.87;96684.38;1608551;89;21062;-62
2021/12/23 01:17:54;;;;;;;4.23;2.10;;;;;;;-11.18;74.13;96675.97;1608502;89;21062;-63
2021/12/23 01:20:30;;;;;;;4.03;2.00;;;;;;;-11.12;73.71;96675.17;1608694;89;21087;-62
2021/12/23 01:23:04;;;;;;;4.33;2.57;;;;;;;-11.13;73.43;96677.23;1608747;89;21062;-62
2021/12/23 01:25:33;;;;;;;6.27;2.60;;;;;;;-11.10;73.50;96677.47;1608901;89;21110;-62
2021/12/23 01:28:00;;;;;;;4.07;1.87;;;;;;;-10.99;73.73;96666.86;1609047;89;21106;-62
2021/12/23 01:30:27;;;;;;;5.87;2.87;;;;;;;-11.00;72.95;96684.20;1608992;89;21085;-63
2021/12/23 01:32:56;;;;;;;7.83;2.63;;;;;;;-10.97;73.34;96668.76;1609009;89;21536;-63
2021/12/23 01:35:26;;;;;;;2.40;1.17;;;;;;;-10.97;72.80;96674.25;1609265;89;21561;-62
2021/12/23 01:37:53;;;;;;;8.33;2.43;;;;;;;-11.06;72.97;96678.23;1609220;89;21098;-62
2021/12/23 01:40:24;;;;;;;5.90;2.60;;;;;;;-11.09;72.96;96675.41;1609119;89;21086;-62
2021/12/23 01:42:51;;;;;;;4.93;2.80;;;;;;;-11.09;72.83;96667.77;1609342;89;21059;-63
2021/12/23 01:45:22;;;;;;;6.57;3.10;;;;;;;-11.09;72.70;96673.26;1609181;89;21031;-63
2021/12/23 01:47:48;;;;;;;7.07;2.70;;;;;;;-11.12;73.05;96669.69;1609182;89;21604;-62
2021/12/23 01:50:23;;;;;;;7.30;4.10;;;;;;;-11.13;73.27;96671.74;1609171;89;21087;-62
2021/12/23 01:52:49;;;;;;;5.63;3.17;;;;;;;-11.18;73.44;96664.50;1609014;89;21023;-63
2021/12/23 01:55:16;;;;;;;4.77;2.60;;;;;;;-11.23;73.22;96669.61;1609482;89;21015;-62
2021/12/23 01:57:44;;;;;;;4.93;2.70;;;;;;;-11.18;73.55;96663.23;1609218;89;21046;-62
2021/12/23 02:00:16;;;;;;;4.40;2.60;;;;;;;-11.22;73.06;96669.72;1608908;89;21170;-62
2021/12/23 02:02:43;;;;;;;4.63;2.80;;;;;;;-11.26;72.86;96665.16;1608822;89;21086;-62
2021/12/23 02:05:11;;;;;;;5.47;2.63;;;;;;;-11.22;73.14;96665.02;1609065;89;21067;-63
2021/12/23 02:07:38;;;;;;;8.43;2.73;;;;;;;-11.15;73.33;96656.70;1582655;91;21496;-63
2021/12/23 02:10:08;;;;;;;4.57;2.60;;;;;;;-11.17;73.16;96660.78;1609077;89;21031;-62
2021/12/23 02:12:35;;;;;;;5.97;2.80;;;;;;;-11.16;73.11;96643.83;1609155;89;21074;-62
2021/12/23 02:15:02;;;;;;;4.00;2.20;;;;;;;-11.15;73.18;96631.63;1608890;89;21134;-62
2021/12/23 02:17:29;;;;;;;4.20;2.43;;;;;;;-11.11;73.76;96637.09;1608969;89;21561;-62
2021/12/23 02:19:56;;;;;;;5.73;3.10;;;;;;;-11.08;73.50;96631.73;1609465;89;21047;-62
2021/12/23 02:22:22;;;;;;;7.40;2.73;;;;;;;-11.14;73.57;96627.94;1609088;89;21075;-62
2021/12/23 02:24:49;;;;;;;3.63;2.20;;;;;;;-11.12;73.66;96628.03;1608896;89;21051;-63
2021/12/23 02:27:15;;;;;;;8.63;4.20;;;;;;;-11.13;73.61;96628.42;1608798;89;21517;-62
2021/12/23 02:29:42;;;;;;;23.00;9.13;;;;;;;-11.19;73.90;96633.02;1608401;89;21070;-63
2021/12/23 02:32:09;;;;;;;13.20;6.17;;;;;;;-11.15;73.97;96636.33;1608245;89;21070;-63
2021/12/23 02:34:36;;;;;;;12.53;5.67;;;;;;;-11.20;73.65;96628.70;1608736;89;21552;-62
2021/12/23 02:37:03;;;;;;;28.67;12.47;;;;;;;-11.33;73.99;96630.64;1608768;89;21517;-62
2021/12/23 02:39:30;;;;;;;6.00;2.30;;;;;;;-11.36;74.10;96632.95;1613429;89;21098;-63
2021/12/23 02:41:58;;;;;;;4.57;2.00;;;;;;;-11.36;73.78;96628.25;1608627;88;21038;-63
2021/12/23 02:44:24;;;;;;;3.80;1.80;;;;;;;-11.34;73.67;96626.33;1608717;89;21011;-62
2021/12/23 02:46:51;;;;;;;5.07;2.70;;;;;;;-11.34;73.51;96625.06;1608576;89;21553;-62
2021/12/23 02:49:19;;;;;;;4.97;2.20;;;;;;;-11.40;73.54;96626.21;1608767;89;21065;-63
2021/12/23 02:51:45;;;;;;;5.30;2.37;;;;;;;-11.45;73.48;96619.86;1608671;89;21074;-62
2021/12/23 02:54:12;;;;;;;7.30;2.60;;;;;;;-11.51;73.37;96615.16;1608744;89;21135;-63
2021/12/23 02:56:38;;;;;;;4.73;2.67;;;;;;;-11.47;73.86;96610.80;1608736;89;21042;-62
2021/12/23 02:59:05;;;;;;;8.13;3.23;;;;;;;-11.49;73.69;96611.45;1608776;89;21050;-63
2021/12/23 03:01:32;;;;;;;4.97;2.40;;;;;;;-11.60;73.66;96608.92;1608666;89;21023;-62
2021/12/23 03:03:59;;;;;;;5.37;2.40;;;;;;;-11.62;73.51;96608.29;1608541;89;21536;-62
2021/12/23 03:06:26;;;;;;;7.87;3.00;;;;;;;-11.62;73.51;96612.11;1608708;89;21130;-62
2021/12/23 03:09:00;;;;;;;5.50;2.30;;;;;;;-11.60;73.74;96606.77;1608561;89;21074;-62
2021/12/23 03:11:29;;;;;;;4.83;2.27;;;;;;;-11.68;73.40;96612.90;1608645;89;21104;-62
2021/12/23 03:13:56;;;;;;;3.73;2.03;;;;;;;-11.63;73.71;96611.23;1608498;89;21166;-62
2021/12/23 03:16:29;;;;;;;4.20;2.03;;;;;;;-11.73;72.98;96612.52;1608638;89;21083;-62
2021/12/23 03:18:56;;;;;;;3.70;2.08;;;;;;;-11.81;73.28;96604.25;1608849;89;21579;-62
2021/12/23 03:21:23;;;;;;;4.60;1.87;;;;;;;-11.87;73.25;96609.25;1608708;89;21041;-63
2021/12/23 03:23:51;;;;;;;3.03;1.93;;;;;;;-11.85;73.64;96612.78;1608461;89;21100;-62
2021/12/23 03:26:20;;;;;;;5.03;2.23;;;;;;;-11.83;73.50;96608.71;1608910;88;21115;-62
2021/12/23 03:28:47;;;;;;;3.53;1.90;;;;;;;-11.92;73.23;96609.25;1609065;89;21038;-62
2021/12/23 03:31:14;;;;;;;4.90;2.43;;;;;;;-12.07;73.46;96613.95;1608939;89;21035;-62
2021/12/23 03:33:41;;;;;;;3.60;1.70;;;;;;;-12.11;73.73;96609.40;1609133;89;21094;-63
2021/12/23 03:36:07;;;;;;;2.73;1.70;;;;;;;-12.11;73.92;96620.45;1609208;89;21576;-62
2021/12/23 03:38:34;;;;;;;4.73;2.27;;;;;;;-12.28;73.38;96621.97;1609025;89;21146;-63
2021/12/23 03:41:01;;;;;;;5.80;2.40;;;;;;;-12.31;73.98;96616.25;1609133;89;21091;-62
2021/12/23 03:43:29;;;;;;;3.40;2.20;;;;;;;-12.28;74.07;96613.95;1609207;89;21078;-63
2021/12/23 03:45:56;;;;;;;3.33;2.03;;;;;;;-12.36;74.09;96613.70;1609235;89;21034;-62
2021/12/23 03:48:24;;;;;;;2.87;1.60;;;;;;;-12.41;74.92;96618.78;1609029;89;21107;-62
2021/12/23 03:50:50;;;;;;;2.77;1.67;;;;;;;-12.45;74.22;96624.00;1609130;89;21027;-62
2021/12/23 03:53:18;;;;;;;3.60;2.10;;;;;;;-12.46;74.91;96618.77;1608849;89;21178;-63
2021/12/23 03:55:46;;;;;;;4.20;2.37;;;;;;;-12.39;75.12;96618.92;1608880;89;21170;-62
2021/12/23 03:58:13;;;;;;;5.20;2.43;;;;;;;-12.38;74.68;96618.14;1609239;89;21027;-63
2021/12/23 04:00:41;;;;;;;8.67;2.77;;;;;;;-12.31;74.46;96619.17;1608997;89;21111;-62
2021/12/23 04:03:08;;;;;;;2.77;1.60;;;;;;;-12.30;74.41;96617.13;1609070;89;21023;-62
2021/12/23 04:05:34;;;;;;;4.83;1.93;;;;;;;-12.33;74.27;96611.80;1609268;89;21015;-63
2021/12/23 04:08:02;;;;;;;3.77;1.93;;;;;;;-12.39;73.95;96609.63;1608982;89;21154;-62
2021/12/23 04:10:29;;;;;;;5.80;2.73;;;;;;;-12.38;73.97;96607.59;1609205;89;21516;-62
2021/12/23 04:12:55;;;;;;;5.57;2.87;;;;;;;-12.38;74.27;96607.59;1609107;89;21122;-62
2021/12/23 04:15:22;;;;;;;5.13;2.60;;;;;;;-12.31;74.30;96603.53;1609136;89;21043;-62
2021/12/23 04:17:49;;;;;;;4.10;2.73;;;;;;;-12.23;74.36;96606.33;1608949;89;21039;-62
2021/12/23 04:20:20;;;;;;;5.67;3.27;;;;;;;-12.33;74.14;96608.86;1609073;89;21051;-62
2021/12/23 04:22:50;;;;;;;5.50;2.60;;;;;;;-12.33;74.33;96613.06;1609220;89;21043;-63
2021/12/23 04:25:19;;;;;;;9.67;4.40;;;;;;;-12.44;73.57;96613.44;1609009;89;21074;-63
2021/12/23 04:27:48;;;;;;;5.03;2.40;;;;;;;-12.47;74.38;96610.27;1608632;89;21078;-62
2021/12/23 04:30:15;;;;;;;4.00;2.20;;;;;;;-12.53;74.09;96607.56;1608848;89;21098;-62
2021/12/23 04:32:42;;;;;;;10.83;3.80;;;;;;;-12.56;74.12;96607.31;1608731;89;21058;-62
2021/12/23 04:35:10;;;;;;;5.73;2.40;;;;;;;-12.62;74.54;96606.78;1608586;89;21074;-63
2021/12/23 04:37:38;;;;;;;7.37;2.87;;;;;;;-12.71;74.00;96602.70;1608618;89;21540;-63
2021/12/23 04:40:09;;;;;;;5.40;3.00;;;;;;;-12.73;74.31;96604.22;1608832;89;21015;-62
2021/12/23 04:42:36;;;;;;;4.40;2.37;;;;;;;-12.57;74.86;96605.16;1608669;89;21102;-62
2021/12/23 04:45:05;;;;;;;3.77;2.13;;;;;;;-12.57;74.14;96596.62;1608661;89;20999;-62
2021/12/23 04:47:33;;;;;;;3.03;1.70;;;;;;;-12.62;73.70;96597.88;1608613;89;21066;-62
2021/12/23 04:50:00;;;;;;;3.40;1.97;;;;;;;-12.64;73.75;96599.04;1608593;89;21075;-62
2021/12/23 04:52:27;;;;;;;6.13;2.10;;;;;;;-12.79;73.80;96597.36;1608756;89;21070;-62
2021/12/23 04:54:53;;;;;;;6.23;2.73;;;;;;;-12.84;73.67;96601.16;1608671;89;21485;-62
2021/12/23 04:57:20;;;;;;;6.60;2.60;;;;;;;-12.82;74.21;96593.28;1608286;89;21071;-62
2021/12/23 04:59:46;;;;;;;3.00;1.50;;;;;;;-12.78;74.17;96587.69;1608649;89;21508;-62
2021/12/23 05:02:13;;;;;;;7.30;3.33;;;;;;;-12.74;74.20;96585.05;1608534;89;21027;-63
2021/12/23 05:04:39;;;;;;;6.80;2.93;;;;;;;-12.67;74.56;96584.42;1608804;89;21075;-63
2021/12/23 05:07:06;;;;;;;7.53;3.03;;;;;;;-12.59;74.33;96579.10;1608522;89;21200;-63
2021/12/23 05:09:33;;;;;;;4.10;2.10;;;;;;;-12.61;74.10;96578.08;1608720;89;21096;-62
2021/12/23 05:11:59;;;;;;;7.23;2.47;;;;;;;-12.56;74.20;96582.78;1608954;89;21055;-63
2021/12/23 05:14:26;;;;;;;5.77;2.83;;;;;;;-12.52;73.96;96581.02;1609117;89;21066;-63
2021/12/23 05:16:52;;;;;;;13.73;5.43;;;;;;;-12.56;73.51;96585.32;1608826;89;21561;-63
2021/12/23 05:19:18;;;;;;;10.00;4.20;;;;;;;-12.62;73.50;96572.11;1608955;89;21074;-63
2021/12/23 05:21:45;;;;;;;11.73;4.33;;;;;;;-12.69;73.50;96570.69;1608813;89;21066;-62
2021/12/23 05:24:12;;;;;;;15.97;5.80;;;;;;;-12.67;73.71;96567.91;1608582;89;21055;-63
2021/12/23 05:26:38;;;;;;;11.33;5.50;;;;;;;-12.80;73.08;96568.88;1609106;89;21063;-62
2021/12/23 05:29:05;;;;;;;6.47;3.47;;;;;;;-12.83;73.55;96570.27;1609051;89;21178;-62
2021/12/23 05:31:32;;;;;;;12.93;5.37;;;;;;;-12.89;74.00;96570.65;1609204;89;21019;-62
2021/12/23 05:33:59;;;;;;;8.30;3.50;;;;;;;-12.86;74.40;96573.06;1609032;89;22197;-62
2021/12/23 05:36:25;;;;;;;8.43;3.23;;;;;;;-12.84;74.35;96568.51;1609569;89;21745;-62
2021/12/23 05:38:51;;;;;;;7.47;3.47;;;;;;;-12.86;74.42;96562.02;1609171;89;21569;-62
2021/12/23 05:41:18;;;;;;;10.40;4.27;;;;;;;-12.81;75.00;96575.11;1609245;89;21062;-62
2021/12/23 05:43:45;;;;;;;14.93;6.10;;;;;;;-12.81;75.00;96575.11;1609100;89;21644;-62
2021/12/23 05:46:11;;;;;;;8.43;4.17;;;;;;;-12.83;74.89;96574.09;1609398;89;21039;-62
2021/12/23 05:48:38;;;;;;;10.30;5.97;;;;;;;-12.80;74.94;96576.49;1609243;89;21120;-62
2021/12/23 05:51:04;;;;;;;5.97;2.90;;;;;;;-12.75;74.87;96571.45;1609565;89;21019;-62
2021/12/23 05:53:31;;;;;;;7.27;3.30;;;;;;;-12.72;75.40;96569.55;1609295;89;22265;-62
2021/12/23 05:55:57;;;;;;;14.63;8.13;;;;;;;-12.71;75.16;96561.16;1609367;89;21031;-63
2021/12/23 05:58:24;;;;;;;8.90;4.17;;;;;;;-12.70;74.94;96574.00;1608955;89;21067;-62
2021/12/23 06:00:53;;;;;;;7.43;3.70;;;;;;;-12.66;74.95;96570.94;1609415;89;20994;-62
2021/12/23 06:03:19;;;;;;;8.13;3.33;;;;;;;-12.63;75.01;96567.77;1609349;89;21031;-63
2021/12/23 06:05:45;;;;;;;8.33;3.47;;;;;;;-12.65;75.50;96561.66;1609133;89;21509;-62
2021/12/23 06:08:12;;;;;;;7.13;4.10;;;;;;;-12.62;75.27;96566.11;1609047;89;21074;-62
2021/12/23 06:10:38;;;;;;;8.63;4.10;;;;;;;-12.48;75.25;96567.78;1609476;89;21042;-62
2021/12/23 06:13:05;;;;;;;9.07;4.60;;;;;;;-12.48;75.25;96567.78;1608976;89;21138;-62
2021/12/23 06:15:32;;;;;;;9.70;4.13;;;;;;;-12.47;74.79;96570.85;1609286;89;21031;-62
2021/12/23 06:17:58;;;;;;;7.30;4.30;;;;;;;-12.41;74.82;96569.20;1609340;89;21075;-62
2021/12/23 06:20:25;;;;;;;11.83;4.57;;;;;;;-12.52;74.74;96561.95;1608878;89;21049;-62
2021/12/23 06:22:51;;;;;;;8.70;3.83;;;;;;;-12.50;74.86;96576.92;1609178;89;21087;-62
2021/12/23 06:25:18;;;;;;;7.77;3.80;;;;;;;-12.43;74.82;96569.44;1609305;89;21045;-62
2021/12/23 06:27:45;;;;;;;10.33;4.03;;;;;;;-12.32;74.95;96572.88;1608395;89;21067;-62
2021/12/23 06:30:19;;;;;;;11.27;4.93;;;;;;;-12.27;75.08;96577.61;1608704;89;21589;-62
2021/12/23 06:32:50;;;;;;;8.17;4.47;;;;;;;-12.24;74.79;96570.61;1608600;89;21054;-62
2021/12/23 06:35:19;;;;;;;16.90;8.50;;;;;;;-12.27;74.39;96578.87;1608364;89;21070;-62
2021/12/23 06:37:46;;;;;;;11.87;3.93;;;;;;;-12.24;74.56;96580.78;1608748;89;21564;-62
2021/12/23 06:40:13;;;;;;;11.07;6.63;;;;;;;-12.20;74.55;96572.63;1608531;89;21190;-63
2021/12/23 06:42:41;;;;;;;9.20;3.87;;;;;;;-12.15;74.22;96573.89;1608752;89;21015;-63
2021/12/23 06:45:08;;;;;;;17.20;8.93;;;;;;;-12.05;74.26;96576.43;1608790;89;21540;-63
2021/12/23 06:47:36;;;;;;;17.07;9.80;;;;;;;-12.03;74.11;96574.91;1608467;89;21062;-63
2021/12/23 06:50:05;;;;;;;10.10;3.87;;;;;;;-12.04;73.08;96573.53;1608694;89;21043;-62
2021/12/23 06:52:32;;;;;;;14.13;7.37;;;;;;;-11.94;73.78;96573.52;1608835;89;21489;-62
2021/12/23 06:54:59;;;;;;;27.67;12.23;;;;;;;-11.96;73.90;96568.68;1608769;89;21094;-62
2021/12/23 06:57:27;;;;;;;24.07;11.60;;;;;;;-11.97;73.52;96570.70;1608804;89;21042;-62
2021/12/23 06:59:54;;;;;;;13.63;6.97;;;;;;;-11.97;73.94;96574.52;1608817;89;21155;-63
2021/12/23 07:02:21;;;;;;;8.57;5.40;;;;;;;-11.89;73.99;96574.78;1608436;89;21560;-63
2021/12/23 07:04:47;;;;;;;21.07;8.40;;;;;;;-11.74;74.23;96569.11;1608988;89;21062;-63
2021/12/23 07:07:26;;;;;;;13.33;6.10;;;;;;;-11.66;74.42;96564.27;1608673;89;21054;-62
2021/12/23 07:09:43;;;;;;;41.67;21.03;;;;;;;-11.52;74.51;96566.64;1606509;89;21071;-62
2021/12/23 07:12:12;;;;;;;27.00;12.93;;;;;;;-11.39;74.43;96564.30;1613234;89;21065;-62
2021/12/23 07:14:40;;;;;;;50.53;25.10;;;;;;;-11.37;74.05;96562.38;1592921;90;21524;-63
2021/12/23 07:17:07;;;;;;;73.13;35.70;;;;;;;-11.24;73.89;96562.09;1608701;88;21393;-62
2021/12/23 07:19:35;;;;;;;67.57;33.03;;;;;;;-11.24;73.33;96565.52;1613248;89;21058;-62
2021/12/23 07:22:03;;;;;;;37.77;18.40;;;;;;;-11.16;74.07;96555.93;1592727;90;21141;-62
2021/12/23 07:24:31;;;;;;;35.30;16.50;;;;;;;-11.10;73.33;96564.08;1608707;89;21516;-62
2021/12/23 07:26:57;;;;;;;26.40;14.47;;;;;;;-10.96;73.40;96544.39;1617903;88;21081;-62
2021/12/23 07:29:24;;;;;;;46.53;21.43;;;;;;;-10.91;73.18;96534.53;1618001;88;21102;-62
2021/12/23 07:31:50;;;;;;;41.90;18.17;;;;;;;-10.86;73.17;96537.44;1618153;89;21489;-62
2021/12/23 07:34:17;;;;;;;31.67;14.00;;;;;;;-10.78;72.77;96528.36;1625219;88;21038;-62
2021/12/23 07:36:44;;;;;;;25.83;11.47;;;;;;;-10.71;72.45;96532.24;1624882;88;21133;-63
2021/12/23 07:39:10;;;;;;;19.17;10.33;;;;;;;-10.64;72.05;96533.61;1625339;88;21536;-62
2021/12/23 07:41:37;;;;;;;12.93;6.43;;;;;;;-10.59;72.12;96537.02;1625395;88;21090;-62
2021/12/23 07:44:07;;;;;;;19.97;9.70;;;;;;;-10.58;72.13;96534.07;1625204;88;21065;-63
2021/12/23 07:46:37;;;;;;;12.63;6.83;;;;;;;-10.57;71.96;96542.24;1625219;88;21480;-62
2021/12/23 07:49:05;;;;;;;20.57;11.27;;;;;;;-10.55;72.07;96539.03;1624844;88;21165;-62
2021/12/23 07:51:33;;;;;;;37.43;19.27;;;;;;;-10.60;72.10;96537.80;1625156;88;21058;-63
2021/12/23 07:54:00;;;;;;;32.87;15.67;;;;;;;-10.45;72.81;96535.53;1625064;88;21179;-62
2021/12/23 07:56:26;;;;;;;32.07;13.87;;;;;;;-10.22;71.94;96531.23;1625295;88;21507;-62
2021/12/23 07:58:53;;;;;;;32.17;12.67;;;;;;;-10.06;71.97;96522.27;1624874;88;21069;-62
2021/12/23 08:01:20;;;;;;;30.07;13.30;;;;;;;-9.94;71.64;96526.52;1625312;88;21060;-62
2021/12/23 08:03:46;;;;;;;30.83;15.53;;;;;;;-9.85;71.47;96516.60;1625254;88;21041;-62
2021/12/23 08:06:13;;;;;;;27.93;13.47;;;;;;;-9.73;71.23;96511.88;1625203;88;21037;-62
2021/12/23 08:08:40;;;;;;;32.37;14.17;;;;;;;-9.58;71.07;96501.48;1625259;88;21080;-62
2021/12/23 08:11:08;;;;;;;27.67;14.00;;;;;;;-9.44;71.14;96503.78;1624969;88;21117;-62
2021/12/23 08:13:35;;;;;;;36.77;17.00;;;;;;;-9.31;70.24;96500.03;1625109;88;21054;-62
2021/12/23 08:16:04;;;;;;;36.50;16.80;;;;;;;-9.22;70.18;96496.86;1625227;88;21070;-62
2021/12/23 08:18:32;;;;;;;37.83;17.33;;;;;;;-9.08;70.24;96489.27;1624848;88;21563;-62
2021/12/23 08:21:00;;;;;;;38.03;17.47;;;;;;;-8.97;69.50;96487.05;1625314;88;21496;-62
2021/12/23 08:23:27;;;;;;;34.57;17.30;;;;;;;-8.90;69.09;96487.10;1625187;88;21105;-62
2021/12/23 08:25:55;;;;;;;43.60;19.33;;;;;;;-8.84;69.52;96486.27;1625054;88;21167;-63
2021/12/23 08:28:22;;;;;;;63.53;34.23;;;;;;;-8.70;69.50;96484.24;1619227;88;21030;-62
2021/12/23 08:30:49;;;;;;;50.90;23.47;;;;;;;-8.53;68.71;96481.17;1618101;89;21058;-62
2021/12/23 08:33:16;;;;;;;30.27;16.10;;;;;;;-8.39;68.70;96472.25;1618096;89;21030;-62
2021/12/23 08:35:42;;;;;;;40.23;20.57;;;;;;;-8.37;68.10;96464.25;1618216;89;21575;-62
2021/12/23 08:38:09;;;;;;;27.10;12.30;;;;;;;-8.25;67.86;96456.52;1617933;88;21049;-62
2021/12/23 08:40:35;;;;;;;30.23;15.97;;;;;;;-8.07;66.28;96460.28;1618260;89;21038;-62
2021/12/23 08:43:03;;;;;;;33.40;16.50;;;;;;;-7.92;67.96;96451.05;1617975;89;21070;-62
2021/12/23 08:45:32;;;;;;;27.03;14.27;;;;;;;-7.72;67.84;96452.73;1618414;89;21054;-62
2021/12/23 08:47:59;;;;;;;30.90;16.03;;;;;;;-7.63;66.74;96436.69;1618006;89;21050;-66
2021/12/23 08:50:29;;;;;;;37.77;17.10;;;;;;;-7.64;67.32;96431.92;1618103;89;21054;-62
2021/12/23 08:52:56;;;;;;;41.00;18.90;;;;;;;-7.59;67.43;96434.79;1618303;89;21098;-63
2021/12/23 08:55:27;;;;;;;26.03;11.03;;;;;;;-7.28;68.06;96429.03;1617985;89;21110;-63
2021/12/23 08:57:56;;;;;;;19.03;9.40;;;;;;;-6.97;65.89;96426.70;1618133;89;21054;-62
2021/12/23 09:00:23;;;;;;;17.70;8.10;;;;;;;-6.62;63.54;96434.38;1618120;88;21508;-62
2021/12/23 09:02:50;;;;;;;12.37;6.33;;;;;;;-6.18;62.36;96427.13;1618184;89;21568;-63
2021/12/23 09:05:19;;;;;;;10.63;5.00;;;;;;;-5.81;61.98;96428.83;1617814;89;21082;-62
2021/12/23 09:07:47;;;;;;;10.87;4.30;;;;;;;-5.50;60.18;96427.98;1618004;89;21050;-63
2021/12/23 09:10:14;;;;;;;15.80;6.97;;;;;;;-5.24;58.42;96410.16;1618071;89;21062;-62
2021/12/23 09:12:42;;;;;;;11.27;5.60;;;;;;;-5.02;58.57;96414.76;1618347;89;21047;-62
2021/12/23 09:15:10;;;;;;;15.00;5.93;;;;;;;-4.82;59.49;96407.69;1618078;89;21098;-62
2021/12/23 09:17:37;;;;;;;8.17;5.23;;;;;;;-4.51;56.94;96409.70;1618283;89;21058;-62
2021/12/23 09:20:08;;;;;;;12.47;6.03;;;;;;;-4.44;56.82;96397.22;1618001;89;21058;-62
2021/12/23 09:22:34;;;;;;;11.63;6.27;;;;;;;-4.25;56.26;96397.77;1618133;88;21034;-63
2021/12/23 09:25:07;;;;;;;10.50;5.50;;;;;;;-4.00;54.15;96392.16;1617893;89;21057;-62
2021/12/23 09:27:39;;;;;;;9.03;5.43;;;;;;;-3.68;52.51;96376.49;1615422;88;21095;-62
2021/12/23 09:32:52;;;;;;;13.13;8.80;;;;;;;-3.31;51.56;96376.55;1613281;88;21099;-62
2021/12/23 09:35:21;;;;;;;;;;;;;;;-3.07;49.22;96357.46;1615750;89;21054;-62
2021/12/23 09:37:50;;;;;;;8.67;5.33;;;;;;;-2.80;49.14;96346.59;1613465;88;20118;-63
2021/12/23 09:40:18;;;;;;;14.27;7.13;;;;;;;-2.77;48.46;96342.47;1613161;88;21077;-63
2021/12/23 09:42:48;;;;;;;18.87;10.27;;;;;;;-2.65;48.54;96335.23;1613340;89;21050;-64
2021/12/23 09:45:18;;;;;;;12.90;7.63;;;;;;;-2.70;47.91;96336.73;1613216;89;21088;-62
2021/12/23 09:47:47;;;;;;;11.33;5.70;;;;;;;-2.40;49.54;96327.26;1613326;89;21525;-63
2021/12/23 09:50:19;;;;;;;8.50;4.20;;;;;;;-1.98;48.28;96332.06;1613149;88;21054;-63
2021/12/23 09:52:49;;;;;;;9.47;5.70;;;;;;;-1.72;46.70;96325.77;1613344;89;21114;-62
2021/12/23 09:55:23;;;;;;;14.57;6.83;;;;;;;-1.48;46.56;96315.52;1613556;89;21481;-62
2021/12/23 09:57:53;;;;;;;15.63;7.73;;;;;;;-1.00;48.12;96304.39;1613450;89;21054;-62
2021/12/23 10:00:25;;;;;;;11.60;7.27;;;;;;;-0.32;44.86;96299.48;1613467;89;21544;-62
2021/12/23 10:02:52;;;;;;;16.93;9.73;;;;;;;0.05;42.26;96289.45;1613589;88;21497;-62
2021/12/23 10:05:24;;;;;;;7.80;5.27;;;;;;;0.62;44.02;96279.17;1613138;89;21039;-63
2021/12/23 10:07:54;;;;;;;10.37;6.03;;;;;;;0.91;40.50;96279.16;1613038;89;21545;-63
2021/12/23 10:10:29;;;;;;;13.20;8.63;;;;;;;1.19;40.73;96272.64;1613446;89;21101;-63
2021/12/23 10:31:07;;;;;;;7.63;5.37;;;;;;;2.60;36.08;96233.27;1618269;89;21050;-64
2021/12/23 10:33:32;;;;;;;8.03;5.47;;;;;;;2.96;36.30;96219.27;1597802;89;21090;-64
2021/12/23 10:38:48;;;;;;;10.33;6.23;;;;;;;3.59;34.82;96201.36;1618276;89;21085;-64
2021/12/23 10:41:26;;;;;;;10.30;6.77;;;;;;;3.44;34.53;96211.96;1618244;89;21087;-63
2021/12/23 10:44:03;;;;;;;10.57;6.97;;;;;;;3.45;34.70;96213.73;1618322;89;21023;-64
2021/12/23 10:46:37;;;;;;;8.43;5.47;;;;;;;3.73;34.25;96206.41;1618113;89;21098;-64
2021/12/23 10:52:06;;;;;;;9.17;6.40;;;;;;;3.87;33.69;96205.33;1618419;88;20105;-64
2021/12/23 11:00:31;;;;;;;21.50;11.50;;;;;;;4.18;32.81;96188.85;1618068;89;21532;-64
2021/12/23 11:03:26;;;;;;;24.30;16.43;;;;;;;4.06;32.90;96190.43;1618272;89;21098;-64
2021/12/23 11:05:59;;;;;;;8.43;5.90;;;;;;;4.16;33.21;96185.33;1613864;89;21049;-64
2021/12/23 11:08:32;;;;;;;33.33;23.40;;;;;;;4.23;32.82;96177.61;1617662;89;21552;-64
2021/12/23 11:11:16;;;;;;;20.13;15.83;;;;;;;4.04;33.12;96169.06;1616795;89;21082;-64
2021/12/23 11:38:13;;;;;;;14.93;10.60;;;;;;;3.84;33.32;96141.33;1591864;90;21106;-63
2021/12/23 11:45:34;;;;;;;45.33;38.87;;;;;;;3.36;33.73;96135.30;1613506;88;21097;-63
2021/12/23 11:48:05;;;;;;;20.23;15.90;;;;;;;3.02;34.12;96131.17;1613400;89;21034;-64
2021/12/23 11:50:41;;;;;;;26.07;20.30;;;;;;;2.86;34.17;96130.01;1612556;89;21111;-64
2021/12/23 11:53:02;;;;;;;63.37;43.70;;;;;;;2.62;34.97;96134.32;1612251;89;21074;-64
2021/12/23 11:55:29;;;;;;;23.43;15.83;;;;;;;2.32;34.99;96138.02;1613377;89;21019;-65
2021/12/23 11:57:56;;;;;;;17.17;10.63;;;;;;;1.96;34.77;96148.46;1613293;88;21082;-64
2021/12/23 12:00:37;;;;;;;22.57;11.53;;;;;;;1.74;35.67;96151.00;1613179;88;21067;-64
2021/12/23 12:03:03;;;;;;;13.70;8.10;;;;;;;1.36;36.04;96154.82;1611117;89;21540;-64
2021/12/23 12:05:33;;;;;;;20.63;13.30;;;;;;;1.09;36.75;96161.46;1613142;89;21038;-64
2021/12/23 12:08:17;;;;;;;10.30;7.03;;;;;;;1.12;37.58;96152.44;1613405;88;21513;-64
2021/12/23 12:10:45;;;;;;;14.27;8.20;;;;;;;1.14;36.11;96146.00;1613039;89;21090;-64
2021/12/23 12:13:17;;;;;;;13.17;8.07;;;;;;;1.14;37.12;96136.47;1613458;89;21030;-64
2021/12/23 12:15:49;;;;;;;11.47;7.13;;;;;;;1.19;36.59;96123.61;1613388;89;21564;-63
2021/12/23 12:18:19;;;;;;;12.33;7.57;;;;;;;0.69;37.21;96122.70;1613420;88;21063;-63
2021/12/23 12:20:51;;;;;;;14.27;7.80;;;;;;;0.57;37.49;96122.34;1613241;89;21521;-63
2021/12/23 12:23:36;;;;;;;14.43;9.43;;;;;;;0.57;37.82;96114.56;1613402;89;21007;-63
2021/12/23 12:26:10;;;;;;;16.57;8.43;;;;;;;0.35;38.33;96110.46;1613364;89;21043;-63
2021/12/23 12:28:43;;;;;;;;;;;;;;;0.15;38.78;96105.98;1617830;88;21501;-63
2021/12/23 12:31:20;;;;;;;13.33;8.40;;;;;;;-0.06;39.00;96105.80;1617437;89;20105;-66
2021/12/23 12:33:55;;;;;;;13.50;7.10;;;;;;;-0.29;39.48;96093.86;1618165;89;21285;-63
2021/12/23 12:36:24;;;;;;;10.00;6.07;;;;;;;-0.56;40.37;96097.33;1610094;89;21585;-63